sensor_id;sensor_type;location;lat;lon;timestamp;P1;durP1;ratioP1;P2;durP2;ratioP2
43807;SDS011;29438;50.664;10.098;2023-10-31T00:01:13;2.28;;;1.60;;
43807;SDS011;29438;50.664;10.098;2023-10-31T00:03:39;3.42;;;1.63;;
43807;SDS011;29438;50.664;10.098;2023-10-31T00:06:05;3.35;;;1.77;;
43807;SDS011;29438;50.664;10.098;2023-10-31T00:08:31;2.33;;;1.38;;
43807;SDS011;29438;50.664;10.098;2023-10-31T00:10:57;2.63;;;1.67;;
43807;SDS011;29438;50.664;10.098;2023-10-31T00:13:22;2.42;;;1.55;;
43807;SDS011;29438;50.664;10.098;2023-10-31T00:15:48;2.63;;;1.45;;
43807;SDS011;29438;50.664;10.098;2023-10-31T00:18:13;2.35;;;1.40;;
43807;SDS011;29438;50.664;10.098;2023-10-31T00:20:40;2.63;;;1.40;;
43807;SDS011;29438;50.664;10.098;2023-10-31T00:23:05;2.15;;;1.20;;
43807;SDS011;29438;50.664;10.098;2023-10-31T00:25:31;2.05;;;1.40;;
43807;SDS011;29438;50.664;10.098;2023-10-31T00:27:56;2.17;;;1.20;;
43807;SDS011;29438;50.664;10.098;2023-10-31T00:30:22;2.08;;;1.00;;
43807;SDS011;29438;50.664;10.098;2023-10-31T00:32:47;2.05;;;1.10;;
43807;SDS011;29438;50.664;10.098;2023-10-31T00:35:13;1.75;;;1.00;;
43807;SDS011;29438;50.664;10.098;2023-10-31T00:37:38;1.80;;;1.00;;
43807;SDS011;29438;50.664;10.098;2023-10-31T00:40:07;2.17;;;1.00;;
43807;SDS011;29438;50.664;10.098;2023-10-31T00:42:36;1.63;;;0.90;;
43807;SDS011;29438;50.664;10.098;2023-10-31T00:45:02;1.52;;;0.90;;
43807;SDS011;29438;50.664;10.098;2023-10-31T00:47:28;1.77;;;0.70;;
43807;SDS011;29438;50.664;10.098;2023-10-31T00:49:53;1.85;;;0.80;;
43807;SDS011;29438;50.664;10.098;2023-10-31T00:52:19;1.35;;;0.70;;
43807;SDS011;29438;50.664;10.098;2023-10-31T00:54:44;1.27;;;0.60;;
43807;SDS011;29438;50.664;10.098;2023-10-31T00:57:10;2.55;;;0.90;;
43807;SDS011;29438;50.664;10.098;2023-10-31T00:59:36;1.80;;;0.90;;
43807;SDS011;29438;50.664;10.098;2023-10-31T01:02:02;1.90;;;0.93;;
43807;SDS011;29438;50.664;10.098;2023-10-31T01:04:28;1.55;;;0.90;;
43807;SDS011;29438;50.664;10.098;2023-10-31T01:06:53;1.88;;;0.90;;
43807;SDS011;29438;50.664;10.098;2023-10-31T01:09:19;1.95;;;1.00;;
43807;SDS011;29438;50.664;10.098;2023-10-31T01:11:44;2.00;;;0.93;;
43807;SDS011;29438;50.664;10.098;2023-10-31T01:14:10;2.17;;;1.00;;
43807;SDS011;29438;50.664;10.098;2023-10-31T01:16:35;2.00;;;1.10;;
43807;SDS011;29438;50.664;10.098;2023-10-31T01:19:01;2.05;;;1.10;;
43807;SDS011;29438;50.664;10.098;2023-10-31T01:21:26;2.20;;;1.10;;
43807;SDS011;29438;50.664;10.098;2023-10-31T01:23:52;2.10;;;1.10;;
43807;SDS011;29438;50.664;10.098;2023-10-31T01:26:17;2.50;;;1.30;;
43807;SDS011;29438;50.664;10.098;2023-10-31T01:28:43;2.47;;;1.38;;
43807;SDS011;29438;50.664;10.098;2023-10-31T01:31:09;3.38;;;2.20;;
43807;SDS011;29438;50.664;10.098;2023-10-31T01:33:34;3.03;;;2.00;;
43807;SDS011;29438;50.664;10.098;2023-10-31T01:36:00;2.63;;;1.63;;
43807;SDS011;29438;50.664;10.098;2023-10-31T01:38:26;2.55;;;1.50;;
43807;SDS011;29438;50.664;10.098;2023-10-31T01:40:52;2.90;;;1.88;;
43807;SDS011;29438;50.664;10.098;2023-10-31T01:43:30;2.65;;;1.70;;
43807;SDS011;29438;50.664;10.098;2023-10-31T01:46:03;2.92;;;1.60;;
43807;SDS011;29438;50.664;10.098;2023-10-31T01:48:29;3.33;;;1.65;;
43807;SDS011;29438;50.664;10.098;2023-10-31T01:50:56;4.18;;;2.05;;
43807;SDS011;29438;50.664;10.098;2023-10-31T01:53:24;3.00;;;1.77;;
43807;SDS011;29438;50.664;10.098;2023-10-31T01:55:51;3.60;;;2.00;;
43807;SDS011;29438;50.664;10.098;2023-10-31T01:58:18;2.83;;;1.95;;
43807;SDS011;29438;50.664;10.098;2023-10-31T02:00:46;3.20;;;2.13;;
43807;SDS011;29438;50.664;10.098;2023-10-31T02:03:12;3.33;;;1.95;;
43807;SDS011;29438;50.664;10.098;2023-10-31T02:05:39;3.67;;;1.88;;
43807;SDS011;29438;50.664;10.098;2023-10-31T02:08:07;3.03;;;1.70;;
43807;SDS011;29438;50.664;10.098;2023-10-31T02:10:35;2.17;;;1.20;;
43807;SDS011;29438;50.664;10.098;2023-10-31T02:18:20;3.63;;;1.75;;
43807;SDS011;29438;50.664;10.098;2023-10-31T02:20:46;2.45;;;1.30;;
43807;SDS011;29438;50.664;10.098;2023-10-31T02:23:15;3.20;;;1.70;;
43807;SDS011;29438;50.664;10.098;2023-10-31T02:25:40;2.63;;;1.70;;
43807;SDS011;29438;50.664;10.098;2023-10-31T02:28:06;2.50;;;1.48;;
43807;SDS011;29438;50.664;10.098;2023-10-31T02:30:31;2.60;;;1.50;;
43807;SDS011;29438;50.664;10.098;2023-10-31T02:33:00;2.20;;;1.17;;
43807;SDS011;29438;50.664;10.098;2023-10-31T02:35:26;2.20;;;1.40;;
43807;SDS011;29438;50.664;10.098;2023-10-31T02:37:52;2.92;;;1.25;;
43807;SDS011;29438;50.664;10.098;2023-10-31T02:40:17;2.17;;;1.15;;
43807;SDS011;29438;50.664;10.098;2023-10-31T02:42:43;2.20;;;1.23;;
43807;SDS011;29438;50.664;10.098;2023-10-31T02:45:09;1.85;;;1.05;;
43807;SDS011;29438;50.664;10.098;2023-10-31T02:47:35;1.40;;;0.70;;
43807;SDS011;29438;50.664;10.098;2023-10-31T02:50:00;1.63;;;0.90;;
43807;SDS011;29438;50.664;10.098;2023-10-31T02:52:26;1.73;;;0.93;;
43807;SDS011;29438;50.664;10.098;2023-10-31T02:54:52;2.33;;;0.77;;
43807;SDS011;29438;50.664;10.098;2023-10-31T02:57:17;1.35;;;0.50;;
43807;SDS011;29438;50.664;10.098;2023-10-31T02:59:43;2.15;;;0.50;;
43807;SDS011;29438;50.664;10.098;2023-10-31T03:02:09;1.20;;;0.50;;
43807;SDS011;29438;50.664;10.098;2023-10-31T03:04:36;2.15;;;0.40;;
43807;SDS011;29438;50.664;10.098;2023-10-31T03:07:01;1.13;;;0.30;;
43807;SDS011;29438;50.664;10.098;2023-10-31T03:09:27;2.47;;;0.38;;
43807;SDS011;29438;50.664;10.098;2023-10-31T03:11:53;0.82;;;0.20;;
43807;SDS011;29438;50.664;10.098;2023-10-31T03:14:18;2.15;;;0.10;;
43807;SDS011;29438;50.664;10.098;2023-10-31T03:16:44;0.65;;;0.10;;
43807;SDS011;29438;50.664;10.098;2023-10-31T03:19:09;0.45;;;0.10;;
43807;SDS011;29438;50.664;10.098;2023-10-31T03:21:35;0.50;;;0.10;;
43807;SDS011;29438;50.664;10.098;2023-10-31T03:24:00;0.52;;;0.10;;
43807;SDS011;29438;50.664;10.098;2023-10-31T03:26:26;0.40;;;0.08;;
43807;SDS011;29438;50.664;10.098;2023-10-31T03:28:51;0.30;;;0.00;;
43807;SDS011;29438;50.664;10.098;2023-10-31T03:31:22;0.30;;;0.03;;
43807;SDS011;29438;50.664;10.098;2023-10-31T03:33:48;0.30;;;0.10;;
43807;SDS011;29438;50.664;10.098;2023-10-31T03:36:13;2.17;;;0.10;;
43807;SDS011;29438;50.664;10.098;2023-10-31T03:38:39;0.80;;;0.05;;
43807;SDS011;29438;50.664;10.098;2023-10-31T03:41:04;0.60;;;0.10;;
43807;SDS011;29438;50.664;10.098;2023-10-31T03:43:30;0.98;;;0.10;;
43807;SDS011;29438;50.664;10.098;2023-10-31T03:45:55;0.68;;;0.10;;
43807;SDS011;29438;50.664;10.098;2023-10-31T03:48:21;0.40;;;0.08;;
43807;SDS011;29438;50.664;10.098;2023-10-31T03:50:46;1.30;;;0.10;;
43807;SDS011;29438;50.664;10.098;2023-10-31T03:53:12;0.70;;;0.10;;
43807;SDS011;29438;50.664;10.098;2023-10-31T03:55:38;1.48;;;0.10;;
43807;SDS011;29438;50.664;10.098;2023-10-31T03:58:03;0.22;;;0.03;;
43807;SDS011;29438;50.664;10.098;2023-10-31T04:00:30;0.38;;;0.10;;
43807;SDS011;29438;50.664;10.098;2023-10-31T04:02:56;0.63;;;0.13;;
43807;SDS011;29438;50.664;10.098;2023-10-31T04:05:22;0.80;;;0.20;;
43807;SDS011;29438;50.664;10.098;2023-10-31T04:07:48;0.75;;;0.10;;
43807;SDS011;29438;50.664;10.098;2023-10-31T04:10:14;1.30;;;0.22;;
43807;SDS011;29438;50.664;10.098;2023-10-31T04:12:40;1.95;;;0.30;;
43807;SDS011;29438;50.664;10.098;2023-10-31T04:15:07;0.82;;;0.32;;
43807;SDS011;29438;50.664;10.098;2023-10-31T04:17:33;0.70;;;0.28;;
43807;SDS011;29438;50.664;10.098;2023-10-31T04:19:58;0.88;;;0.40;;
43807;SDS011;29438;50.664;10.098;2023-10-31T04:22:24;0.93;;;0.30;;
43807;SDS011;29438;50.664;10.098;2023-10-31T04:24:50;2.03;;;0.50;;
43807;SDS011;29438;50.664;10.098;2023-10-31T04:27:15;1.27;;;0.52;;
43807;SDS011;29438;50.664;10.098;2023-10-31T04:29:41;1.90;;;0.70;;
43807;SDS011;29438;50.664;10.098;2023-10-31T04:32:06;1.08;;;0.50;;
43807;SDS011;29438;50.664;10.098;2023-10-31T04:34:32;1.98;;;0.80;;
43807;SDS011;29438;50.664;10.098;2023-10-31T04:36:58;1.42;;;0.57;;
43807;SDS011;29438;50.664;10.098;2023-10-31T04:39:24;1.10;;;0.50;;
43807;SDS011;29438;50.664;10.098;2023-10-31T04:41:49;0.88;;;0.25;;
43807;SDS011;29438;50.664;10.098;2023-10-31T04:44:15;0.70;;;0.13;;
43807;SDS011;29438;50.664;10.098;2023-10-31T04:46:41;0.85;;;0.20;;
43807;SDS011;29438;50.664;10.098;2023-10-31T04:49:07;0.60;;;0.20;;
43807;SDS011;29438;50.664;10.098;2023-10-31T04:51:33;0.40;;;0.10;;
43807;SDS011;29438;50.664;10.098;2023-10-31T04:54:00;1.20;;;0.15;;
43807;SDS011;29438;50.664;10.098;2023-10-31T04:56:25;1.13;;;0.10;;
43807;SDS011;29438;50.664;10.098;2023-10-31T04:58:51;0.73;;;0.10;;
43807;SDS011;29438;50.664;10.098;2023-10-31T05:01:16;0.40;;;0.10;;
43807;SDS011;29438;50.664;10.098;2023-10-31T05:03:44;0.60;;;0.20;;
43807;SDS011;29438;50.664;10.098;2023-10-31T05:06:09;1.13;;;0.50;;
43807;SDS011;29438;50.664;10.098;2023-10-31T05:08:35;2.13;;;0.38;;
43807;SDS011;29438;50.664;10.098;2023-10-31T05:11:01;4.20;;;0.70;;
43807;SDS011;29438;50.664;10.098;2023-10-31T05:13:26;1.10;;;0.40;;
43807;SDS011;29438;50.664;10.098;2023-10-31T05:15:52;0.90;;;0.40;;
43807;SDS011;29438;50.664;10.098;2023-10-31T05:18:17;0.77;;;0.30;;
43807;SDS011;29438;50.664;10.098;2023-10-31T05:20:43;0.80;;;0.30;;
43807;SDS011;29438;50.664;10.098;2023-10-31T05:23:09;1.05;;;0.40;;
43807;SDS011;29438;50.664;10.098;2023-10-31T05:25:34;1.95;;;0.63;;
43807;SDS011;29438;50.664;10.098;2023-10-31T05:28:00;1.25;;;0.40;;
43807;SDS011;29438;50.664;10.098;2023-10-31T05:30:26;1.30;;;0.57;;
43807;SDS011;29438;50.664;10.098;2023-10-31T05:32:52;2.47;;;0.68;;
43807;SDS011;29438;50.664;10.098;2023-10-31T05:35:17;1.70;;;0.60;;
43807;SDS011;29438;50.664;10.098;2023-10-31T05:37:45;0.95;;;0.30;;
43807;SDS011;29438;50.664;10.098;2023-10-31T05:40:11;1.40;;;0.40;;
43807;SDS011;29438;50.664;10.098;2023-10-31T05:42:37;1.50;;;0.50;;
43807;SDS011;29438;50.664;10.098;2023-10-31T05:45:03;1.33;;;0.60;;
43807;SDS011;29438;50.664;10.098;2023-10-31T05:47:29;1.70;;;0.70;;
43807;SDS011;29438;50.664;10.098;2023-10-31T05:49:55;2.15;;;0.80;;
43807;SDS011;29438;50.664;10.098;2023-10-31T05:52:20;2.88;;;1.00;;
43807;SDS011;29438;50.664;10.098;2023-10-31T05:54:46;1.42;;;0.70;;
43807;SDS011;29438;50.664;10.098;2023-10-31T05:57:11;1.42;;;0.60;;
43807;SDS011;29438;50.664;10.098;2023-10-31T05:59:37;1.70;;;0.60;;
43807;SDS011;29438;50.664;10.098;2023-10-31T06:02:02;1.13;;;0.40;;
43807;SDS011;29438;50.664;10.098;2023-10-31T06:04:28;2.20;;;0.50;;
43807;SDS011;29438;50.664;10.098;2023-10-31T06:06:54;1.55;;;0.45;;
43807;SDS011;29438;50.664;10.098;2023-10-31T06:09:19;1.55;;;0.60;;
43807;SDS011;29438;50.664;10.098;2023-10-31T06:11:45;1.27;;;0.68;;
43807;SDS011;29438;50.664;10.098;2023-10-31T06:14:12;1.83;;;0.80;;
43807;SDS011;29438;50.664;10.098;2023-10-31T06:16:41;2.00;;;1.13;;
43807;SDS011;29438;50.664;10.098;2023-10-31T06:19:08;2.10;;;1.20;;
43807;SDS011;29438;50.664;10.098;2023-10-31T06:21:34;2.10;;;1.10;;
43807;SDS011;29438;50.664;10.098;2023-10-31T06:24:00;2.38;;;1.25;;
43807;SDS011;29438;50.664;10.098;2023-10-31T06:26:25;1.58;;;0.90;;
43807;SDS011;29438;50.664;10.098;2023-10-31T06:28:51;2.53;;;1.20;;
43807;SDS011;29438;50.664;10.098;2023-10-31T06:31:16;2.00;;;1.02;;
43807;SDS011;29438;50.664;10.098;2023-10-31T06:33:42;3.97;;;1.10;;
43807;SDS011;29438;50.664;10.098;2023-10-31T06:36:08;2.63;;;1.10;;
43807;SDS011;29438;50.664;10.098;2023-10-31T06:38:33;2.50;;;1.02;;
43807;SDS011;29438;50.664;10.098;2023-10-31T06:40:59;3.20;;;1.00;;
43807;SDS011;29438;50.664;10.098;2023-10-31T06:43:25;2.65;;;0.85;;
43807;SDS011;29438;50.664;10.098;2023-10-31T06:45:50;2.00;;;0.90;;
43807;SDS011;29438;50.664;10.098;2023-10-31T06:48:16;1.95;;;0.93;;
43807;SDS011;29438;50.664;10.098;2023-10-31T06:50:41;1.70;;;0.90;;
43807;SDS011;29438;50.664;10.098;2023-10-31T06:53:07;2.33;;;0.80;;
43807;SDS011;29438;50.664;10.098;2023-10-31T06:55:33;2.20;;;1.25;;
43807;SDS011;29438;50.664;10.098;2023-10-31T06:57:59;2.47;;;1.25;;
43807;SDS011;29438;50.664;10.098;2023-10-31T07:00:24;2.47;;;1.40;;
43807;SDS011;29438;50.664;10.098;2023-10-31T07:02:50;2.95;;;1.70;;
43807;SDS011;29438;50.664;10.098;2023-10-31T07:05:15;3.05;;;1.50;;
43807;SDS011;29438;50.664;10.098;2023-10-31T07:07:41;2.88;;;1.33;;
43807;SDS011;29438;50.664;10.098;2023-10-31T07:10:07;2.38;;;1.40;;
43807;SDS011;29438;50.664;10.098;2023-10-31T07:12:32;2.38;;;1.30;;
43807;SDS011;29438;50.664;10.098;2023-10-31T07:14:58;1.92;;;1.05;;
43807;SDS011;29438;50.664;10.098;2023-10-31T07:17:25;2.03;;;1.10;;
43807;SDS011;29438;50.664;10.098;2023-10-31T07:19:50;1.92;;;1.20;;
43807;SDS011;29438;50.664;10.098;2023-10-31T07:22:16;1.98;;;1.15;;
43807;SDS011;29438;50.664;10.098;2023-10-31T07:24:41;2.03;;;0.90;;
43807;SDS011;29438;50.664;10.098;2023-10-31T07:27:08;1.63;;;0.90;;
43807;SDS011;29438;50.664;10.098;2023-10-31T07:29:39;1.98;;;1.00;;
43807;SDS011;29438;50.664;10.098;2023-10-31T07:32:06;2.03;;;0.93;;
43807;SDS011;29438;50.664;10.098;2023-10-31T07:34:35;1.88;;;1.10;;
43807;SDS011;29438;50.664;10.098;2023-10-31T07:37:00;1.88;;;0.70;;
43807;SDS011;29438;50.664;10.098;2023-10-31T07:39:26;1.60;;;0.90;;
43807;SDS011;29438;50.664;10.098;2023-10-31T07:41:52;1.42;;;0.80;;
43807;SDS011;29438;50.664;10.098;2023-10-31T07:44:17;1.70;;;1.00;;
43807;SDS011;29438;50.664;10.098;2023-10-31T07:46:43;2.42;;;0.95;;
43807;SDS011;29438;50.664;10.098;2023-10-31T07:49:08;2.03;;;0.70;;
43807;SDS011;29438;50.664;10.098;2023-10-31T07:51:34;1.48;;;0.80;;
43807;SDS011;29438;50.664;10.098;2023-10-31T07:53:59;1.63;;;0.73;;
43807;SDS011;29438;50.664;10.098;2023-10-31T07:56:25;1.90;;;1.10;;
43807;SDS011;29438;50.664;10.098;2023-10-31T07:58:51;1.52;;;0.90;;
43807;SDS011;29438;50.664;10.098;2023-10-31T08:01:20;1.50;;;0.75;;
43807;SDS011;29438;50.664;10.098;2023-10-31T08:03:46;5.15;;;1.25;;
43807;SDS011;29438;50.664;10.098;2023-10-31T08:06:12;1.70;;;1.08;;
43807;SDS011;29438;50.664;10.098;2023-10-31T08:08:38;1.90;;;1.00;;
43807;SDS011;29438;50.664;10.098;2023-10-31T08:11:07;1.92;;;0.80;;
43807;SDS011;29438;50.664;10.098;2023-10-31T08:13:33;1.75;;;0.80;;
43807;SDS011;29438;50.664;10.098;2023-10-31T08:15:58;1.25;;;0.55;;
43807;SDS011;29438;50.664;10.098;2023-10-31T08:18:24;2.65;;;0.60;;
43807;SDS011;29438;50.664;10.098;2023-10-31T08:20:50;1.52;;;0.70;;
43807;SDS011;29438;50.664;10.098;2023-10-31T08:23:18;1.63;;;0.60;;
43807;SDS011;29438;50.664;10.098;2023-10-31T08:25:44;2.40;;;0.68;;
43807;SDS011;29438;50.664;10.098;2023-10-31T08:28:10;1.80;;;0.52;;
43807;SDS011;29438;50.664;10.098;2023-10-31T08:30:36;1.50;;;0.80;;
43807;SDS011;29438;50.664;10.098;2023-10-31T08:33:03;1.35;;;0.63;;
43807;SDS011;29438;50.664;10.098;2023-10-31T08:35:29;1.38;;;0.73;;
43807;SDS011;29438;50.664;10.098;2023-10-31T08:37:54;1.55;;;0.95;;
43807;SDS011;29438;50.664;10.098;2023-10-31T08:40:20;1.90;;;0.75;;
43807;SDS011;29438;50.664;10.098;2023-10-31T08:42:46;1.85;;;0.60;;
43807;SDS011;29438;50.664;10.098;2023-10-31T08:45:11;2.33;;;0.65;;
43807;SDS011;29438;50.664;10.098;2023-10-31T08:47:37;0.88;;;0.50;;
43807;SDS011;29438;50.664;10.098;2023-10-31T08:50:02;1.10;;;0.65;;
43807;SDS011;29438;50.664;10.098;2023-10-31T08:52:28;1.20;;;0.38;;
43807;SDS011;29438;50.664;10.098;2023-10-31T08:54:54;1.00;;;0.47;;
43807;SDS011;29438;50.664;10.098;2023-10-31T08:57:19;0.98;;;0.40;;
43807;SDS011;29438;50.664;10.098;2023-10-31T08:59:45;1.33;;;0.50;;
43807;SDS011;29438;50.664;10.098;2023-10-31T09:02:10;0.75;;;0.30;;
43807;SDS011;29438;50.664;10.098;2023-10-31T09:04:36;1.25;;;0.40;;
43807;SDS011;29438;50.664;10.098;2023-10-31T09:07:02;0.98;;;0.40;;
43807;SDS011;29438;50.664;10.098;2023-10-31T09:09:27;1.77;;;0.40;;
43807;SDS011;29438;50.664;10.098;2023-10-31T09:11:53;1.20;;;0.60;;
43807;SDS011;29438;50.664;10.098;2023-10-31T09:14:19;1.15;;;0.45;;
43807;SDS011;29438;50.664;10.098;2023-10-31T09:16:45;1.65;;;0.40;;
43807;SDS011;29438;50.664;10.098;2023-10-31T09:19:10;2.08;;;0.40;;
43807;SDS011;29438;50.664;10.098;2023-10-31T09:21:36;1.13;;;0.60;;
43807;SDS011;29438;50.664;10.098;2023-10-31T09:24:02;1.05;;;0.60;;
43807;SDS011;29438;50.664;10.098;2023-10-31T09:26:28;1.70;;;0.70;;
43807;SDS011;29438;50.664;10.098;2023-10-31T09:28:55;2.13;;;0.52;;
43807;SDS011;29438;50.664;10.098;2023-10-31T09:31:20;1.45;;;0.70;;
43807;SDS011;29438;50.664;10.098;2023-10-31T09:33:46;1.20;;;0.60;;
43807;SDS011;29438;50.664;10.098;2023-10-31T09:36:12;1.27;;;0.68;;
43807;SDS011;29438;50.664;10.098;2023-10-31T09:38:40;1.00;;;0.50;;
43807;SDS011;29438;50.664;10.098;2023-10-31T09:41:06;1.63;;;0.50;;
43807;SDS011;29438;50.664;10.098;2023-10-31T09:43:32;1.25;;;0.50;;
43807;SDS011;29438;50.664;10.098;2023-10-31T09:45:58;1.10;;;0.40;;
43807;SDS011;29438;50.664;10.098;2023-10-31T09:48:25;1.25;;;0.50;;
43807;SDS011;29438;50.664;10.098;2023-10-31T09:50:51;1.13;;;0.60;;
43807;SDS011;29438;50.664;10.098;2023-10-31T09:53:18;1.70;;;0.60;;
43807;SDS011;29438;50.664;10.098;2023-10-31T09:55:45;1.20;;;0.50;;
43807;SDS011;29438;50.664;10.098;2023-10-31T09:58:11;1.48;;;0.68;;
43807;SDS011;29438;50.664;10.098;2023-10-31T10:00:37;0.98;;;0.57;;
43807;SDS011;29438;50.664;10.098;2023-10-31T10:03:05;2.95;;;0.85;;
43807;SDS011;29438;50.664;10.098;2023-10-31T10:05:34;1.80;;;0.63;;
43807;SDS011;29438;50.664;10.098;2023-10-31T10:08:00;1.30;;;0.60;;
43807;SDS011;29438;50.664;10.098;2023-10-31T10:10:26;1.30;;;0.52;;
43807;SDS011;29438;50.664;10.098;2023-10-31T10:12:52;1.35;;;0.60;;
43807;SDS011;29438;50.664;10.098;2023-10-31T10:15:18;1.02;;;0.47;;
43807;SDS011;29438;50.664;10.098;2023-10-31T10:17:51;3.03;;;0.90;;
43807;SDS011;29438;50.664;10.098;2023-10-31T10:20:17;6.15;;;1.60;;
43807;SDS011;29438;50.664;10.098;2023-10-31T10:22:43;5.95;;;2.35;;
43807;SDS011;29438;50.664;10.098;2023-10-31T10:25:10;1.95;;;0.82;;
43807;SDS011;29438;50.664;10.098;2023-10-31T10:27:40;1.48;;;0.60;;
43807;SDS011;29438;50.664;10.098;2023-10-31T10:30:07;1.40;;;0.52;;
43807;SDS011;29438;50.664;10.098;2023-10-31T10:32:33;1.50;;;0.60;;
43807;SDS011;29438;50.664;10.098;2023-10-31T10:34:59;1.50;;;0.57;;
43807;SDS011;29438;50.664;10.098;2023-10-31T10:37:26;1.55;;;0.60;;
43807;SDS011;29438;50.664;10.098;2023-10-31T10:39:52;1.77;;;0.90;;
43807;SDS011;29438;50.664;10.098;2023-10-31T10:42:28;5.30;;;1.13;;
43807;SDS011;29438;50.664;10.098;2023-10-31T10:45:02;3.30;;;0.70;;
43807;SDS011;29438;50.664;10.098;2023-10-31T10:47:32;2.65;;;0.60;;
43807;SDS011;29438;50.664;10.098;2023-10-31T10:50:00;0.88;;;0.50;;
43807;SDS011;29438;50.664;10.098;2023-10-31T10:52:30;1.25;;;0.55;;
43807;SDS011;29438;50.664;10.098;2023-10-31T10:55:12;1.67;;;0.60;;
43807;SDS011;29438;50.664;10.098;2023-10-31T11:00:27;3.97;;;0.93;;
43807;SDS011;29438;50.664;10.098;2023-10-31T11:02:54;3.15;;;1.35;;
43807;SDS011;29438;50.664;10.098;2023-10-31T11:05:21;4.22;;;1.58;;
43807;SDS011;29438;50.664;10.098;2023-10-31T11:07:48;4.72;;;1.45;;
43807;SDS011;29438;50.664;10.098;2023-10-31T11:10:16;3.42;;;1.70;;
43807;SDS011;29438;50.664;10.098;2023-10-31T11:12:42;2.58;;;1.20;;
43807;SDS011;29438;50.664;10.098;2023-10-31T11:15:09;1.75;;;0.80;;
43807;SDS011;29438;50.664;10.098;2023-10-31T11:17:40;2.13;;;0.90;;
43807;SDS011;29438;50.664;10.098;2023-10-31T11:20:07;2.25;;;0.80;;
43807;SDS011;29438;50.664;10.098;2023-10-31T11:22:45;2.72;;;1.30;;
43807;SDS011;29438;50.664;10.098;2023-10-31T11:25:20;2.10;;;1.08;;
43807;SDS011;29438;50.664;10.098;2023-10-31T11:27:49;2.00;;;0.80;;
43807;SDS011;29438;50.664;10.098;2023-10-31T11:33:33;2.28;;;0.60;;
43807;SDS011;29438;50.664;10.098;2023-10-31T11:35:40;1.83;;;0.90;;
43807;SDS011;29438;50.664;10.098;2023-10-31T11:38:06;1.45;;;0.70;;
43807;SDS011;29438;50.664;10.098;2023-10-31T11:40:33;1.75;;;0.90;;
43807;SDS011;29438;50.664;10.098;2023-10-31T11:43:03;2.00;;;0.73;;
43807;SDS011;29438;50.664;10.098;2023-10-31T11:45:34;2.30;;;0.90;;
43807;SDS011;29438;50.664;10.098;2023-10-31T11:48:01;5.00;;;1.90;;
43807;SDS011;29438;50.664;10.098;2023-10-31T11:50:29;3.30;;;0.90;;
43807;SDS011;29438;50.664;10.098;2023-10-31T11:53:14;2.35;;;1.00;;
43807;SDS011;29438;50.664;10.098;2023-10-31T11:58:26;3.42;;;1.42;;
43807;SDS011;29438;50.664;10.098;2023-10-31T12:00:52;3.80;;;1.95;;
43807;SDS011;29438;50.664;10.098;2023-10-31T12:03:25;2.72;;;1.20;;
43807;SDS011;29438;50.664;10.098;2023-10-31T12:05:55;2.75;;;1.33;;
43807;SDS011;29438;50.664;10.098;2023-10-31T12:08:29;4.35;;;1.42;;
43807;SDS011;29438;50.664;10.098;2023-10-31T12:13:29;3.20;;;1.35;;
43807;SDS011;29438;50.664;10.098;2023-10-31T12:15:54;2.30;;;1.00;;
43807;SDS011;29438;50.664;10.098;2023-10-31T12:18:20;2.63;;;1.17;;
43807;SDS011;29438;50.664;10.098;2023-10-31T12:20:50;2.35;;;0.93;;
43807;SDS011;29438;50.664;10.098;2023-10-31T12:23:17;3.10;;;1.00;;
43807;SDS011;29438;50.664;10.098;2023-10-31T12:25:49;3.05;;;1.50;;
43807;SDS011;29438;50.664;10.098;2023-10-31T12:28:18;3.08;;;1.13;;
43807;SDS011;29438;50.664;10.098;2023-10-31T12:30:45;3.10;;;1.00;;
43807;SDS011;29438;50.664;10.098;2023-10-31T12:33:16;3.15;;;1.27;;
43807;SDS011;29438;50.664;10.098;2023-10-31T12:35:42;2.53;;;1.23;;
43807;SDS011;29438;50.664;10.098;2023-10-31T12:38:11;2.53;;;1.30;;
43807;SDS011;29438;50.664;10.098;2023-10-31T12:40:38;3.75;;;1.55;;
43807;SDS011;29438;50.664;10.098;2023-10-31T12:43:05;3.05;;;1.50;;
43807;SDS011;29438;50.664;10.098;2023-10-31T12:45:31;2.92;;;1.42;;
43807;SDS011;29438;50.664;10.098;2023-10-31T12:48:00;2.42;;;1.08;;
43807;SDS011;29438;50.664;10.098;2023-10-31T12:50:34;2.20;;;1.17;;
43807;SDS011;29438;50.664;10.098;2023-10-31T12:53:02;1.85;;;0.98;;
43807;SDS011;29438;50.664;10.098;2023-10-31T12:55:29;2.33;;;0.82;;
43807;SDS011;29438;50.664;10.098;2023-10-31T12:57:55;2.10;;;0.93;;
43807;SDS011;29438;50.664;10.098;2023-10-31T13:00:22;1.85;;;0.95;;
43807;SDS011;29438;50.664;10.098;2023-10-31T13:03:00;2.88;;;0.80;;
43807;SDS011;29438;50.664;10.098;2023-10-31T13:05:29;3.35;;;0.90;;
43807;SDS011;29438;50.664;10.098;2023-10-31T13:07:59;2.97;;;1.00;;
43807;SDS011;29438;50.664;10.098;2023-10-31T13:10:26;4.07;;;1.00;;
43807;SDS011;29438;50.664;10.098;2023-10-31T13:12:53;2.63;;;1.00;;
43807;SDS011;29438;50.664;10.098;2023-10-31T13:15:20;2.45;;;1.08;;
43807;SDS011;29438;50.664;10.098;2023-10-31T13:17:50;2.20;;;1.20;;
43807;SDS011;29438;50.664;10.098;2023-10-31T13:20:17;2.70;;;0.90;;
43807;SDS011;29438;50.664;10.098;2023-10-31T13:22:44;1.85;;;0.73;;
43807;SDS011;29438;50.664;10.098;2023-10-31T13:25:10;1.70;;;0.77;;
43807;SDS011;29438;50.664;10.098;2023-10-31T13:27:37;3.22;;;0.70;;
43807;SDS011;29438;50.664;10.098;2023-10-31T13:30:04;4.35;;;0.70;;
43807;SDS011;29438;50.664;10.098;2023-10-31T13:32:30;3.05;;;0.90;;
43807;SDS011;29438;50.664;10.098;2023-10-31T13:34:56;5.47;;;0.93;;
43807;SDS011;29438;50.664;10.098;2023-10-31T13:37:22;1.45;;;0.50;;
43807;SDS011;29438;50.664;10.098;2023-10-31T13:39:47;1.73;;;0.60;;
43807;SDS011;29438;50.664;10.098;2023-10-31T13:42:13;2.65;;;0.60;;
43807;SDS011;29438;50.664;10.098;2023-10-31T13:44:39;2.38;;;0.77;;
43807;SDS011;29438;50.664;10.098;2023-10-31T13:47:05;2.15;;;0.68;;
43807;SDS011;29438;50.664;10.098;2023-10-31T13:49:31;1.63;;;0.60;;
43807;SDS011;29438;50.664;10.098;2023-10-31T13:51:56;3.75;;;1.02;;
43807;SDS011;29438;50.664;10.098;2023-10-31T13:54:22;2.88;;;1.00;;
43807;SDS011;29438;50.664;10.098;2023-10-31T13:56:48;1.75;;;0.90;;
43807;SDS011;29438;50.664;10.098;2023-10-31T13:59:13;3.22;;;0.85;;
43807;SDS011;29438;50.664;10.098;2023-10-31T14:01:39;2.00;;;0.80;;
43807;SDS011;29438;50.664;10.098;2023-10-31T14:04:06;2.75;;;0.80;;
43807;SDS011;29438;50.664;10.098;2023-10-31T14:06:32;2.38;;;0.70;;
43807;SDS011;29438;50.664;10.098;2023-10-31T14:08:58;1.67;;;0.77;;
43807;SDS011;29438;50.664;10.098;2023-10-31T14:11:25;2.45;;;0.90;;
43807;SDS011;29438;50.664;10.098;2023-10-31T14:13:51;1.80;;;0.80;;
43807;SDS011;29438;50.664;10.098;2023-10-31T14:16:17;2.63;;;0.90;;
43807;SDS011;29438;50.664;10.098;2023-10-31T14:18:43;3.08;;;0.98;;
43807;SDS011;29438;50.664;10.098;2023-10-31T14:21:11;2.28;;;1.02;;
43807;SDS011;29438;50.664;10.098;2023-10-31T14:23:36;2.55;;;1.27;;
43807;SDS011;29438;50.664;10.098;2023-10-31T14:26:02;3.72;;;1.48;;
43807;SDS011;29438;50.664;10.098;2023-10-31T14:28:27;3.00;;;1.10;;
43807;SDS011;29438;50.664;10.098;2023-10-31T14:30:53;4.45;;;1.27;;
43807;SDS011;29438;50.664;10.098;2023-10-31T14:33:19;4.55;;;1.60;;
43807;SDS011;29438;50.664;10.098;2023-10-31T14:35:44;3.28;;;1.40;;
43807;SDS011;29438;50.664;10.098;2023-10-31T14:38:10;3.58;;;1.30;;
43807;SDS011;29438;50.664;10.098;2023-10-31T14:40:35;2.50;;;1.17;;
43807;SDS011;29438;50.664;10.098;2023-10-31T14:43:01;1.67;;;1.10;;
43807;SDS011;29438;50.664;10.098;2023-10-31T14:45:27;2.00;;;1.08;;